Time;durP1;ratioP1;P1;durP2;ratioP2;P2;SDS_P1;SDS_P2;PMS_P1;PMS_P2;Temp;Humidity;BMP_temperature;BMP_pressure;BME280_temperature;BME280_humidity;BME280_pressure;Samples;Min_cycle;Max_cycle;Signal;HPM_P1;HPM_P2
2022/02/10 00:13:46;;;;;;;4.37;1.70;;;10.10;48.60;;;;;;5110380;28;20477;-79
2022/02/10 00:16:48;;;;;;;3.90;1.93;;;10.00;47.90;;;;;;5103769;28;20488;-79
2022/02/10 00:22:19;;;;;;;4.03;1.93;;;10.00;47.10;;;;;;5039894;28;20469;-78
2022/02/10 00:36:09;;;;;;;2.43;1.40;;;9.90;47.60;;;;;;5108020;28;20517;-79
2022/02/10 00:38:43;;;;;;;2.57;1.43;;;9.90;46.00;;;;;;5108897;28;20470;-79
2022/02/10 00:41:11;;;;;;;1.90;1.70;;;9.90;46.90;;;;;;5103732;28;20447;-79
2022/02/10 00:43:40;;;;;;;1.50;1.30;;;9.90;48.50;;;;;;5096574;28;20443;-79
2022/02/10 00:46:09;;;;;;;1.50;1.40;;;9.90;46.80;;;;;;5108073;28;20909;-79
2022/02/10 00:48:38;;;;;;;3.47;1.93;;;9.80;47.00;;;;;;5107757;28;20450;-79
2022/02/10 00:51:06;;;;;;;2.37;1.80;;;9.80;47.10;;;;;;5099987;28;20451;-78
2022/02/10 00:53:39;;;;;;;2.23;1.77;;;9.80;47.90;;;;;;5107088;28;20446;-78
2022/02/10 00:56:09;;;;;;;4.10;1.87;;;9.70;47.00;;;;;;5103706;28;21025;-78
2022/02/10 00:58:40;;;;;;;4.23;2.00;;;9.60;47.00;;;;;;5096607;28;20848;-79
2022/02/10 01:12:32;;;;;;;2.67;1.90;;;9.50;47.50;;;;;;5061392;28;20460;-79
2022/02/10 01:31:36;;;;;;;2.90;2.00;;;9.30;45.90;;;;;;5090167;28;20947;-78
2022/02/10 01:34:06;;;;;;;2.40;1.80;;;9.30;46.00;;;;;;5089270;28;20457;-79
2022/02/10 01:36:35;;;;;;;5.70;2.30;;;9.20;46.80;;;;;;5083479;28;20472;-79
2022/02/10 01:39:04;;;;;;;2.90;2.13;;;9.20;46.50;;;;;;5094735;28;20482;-79
2022/02/10 02:03:18;;;;;;;2.80;2.00;;;9.60;43.40;;;;;;5085032;28;20503;-80
2022/02/10 02:04:16;;;;;;;3.30;2.57;;;9.80;42.90;;;;;;5087987;28;21047;-80
2022/02/10 02:06:49;;;;;;;3.50;2.30;;;9.90;44.30;;;;;;5082488;28;20526;-80
2022/02/10 02:09:18;;;;;;;2.97;2.00;;;9.80;43.80;;;;;;5090521;28;20517;-79
2022/02/10 02:11:48;;;;;;;6.90;3.03;;;9.80;42.20;;;;;;5082668;28;20442;-79
2022/02/10 02:14:20;;;;;;;3.33;2.23;;;9.80;43.60;;;;;;5087450;28;20854;-79
2022/02/10 02:16:51;;;;;;;4.23;2.17;;;9.80;42.50;;;;;;5082492;28;20992;-79
2022/02/10 02:19:19;;;;;;;3.33;1.80;;;9.80;41.70;;;;;;5087224;28;20472;-80
2022/02/10 02:21:50;;;;;;;2.57;1.33;;;9.90;41.90;;;;;;5083478;28;20852;-79
2022/02/10 02:24:22;;;;;;;3.17;1.93;;;10.00;40.90;;;;;;5095335;28;20455;-79
2022/02/10 02:26:52;;;;;;;1.90;1.20;;;10.00;40.60;;;;;;5090018;28;20449;-79
2022/02/10 02:29:29;;;;;;;4.70;1.83;;;10.00;39.30;;;;;;5090703;28;20488;-79
2022/02/10 02:32:00;;;;;;;4.07;1.50;;;10.10;39.30;;;;;;5087967;28;20450;-79
2022/02/10 02:34:52;;;;;;;2.10;1.70;;;10.10;40.80;;;;;;5084596;28;20462;-79
2022/02/10 02:37:51;;;;;;;1.93;1.70;;;10.10;41.60;;;;;;5084787;28;20475;-78
2022/02/10 03:05:39;;;;;;;2.33;1.37;;;10.20;38.40;;;;;;5088514;28;20449;-79
2022/02/10 03:08:14;;;;;;;1.83;1.30;;;10.10;37.40;;;;;;5089817;28;20455;-78
2022/02/10 03:10:59;;;;;;;2.10;1.30;;;10.20;39.30;;;;;;5087630;28;20489;-79
2022/02/10 03:13:33;;;;;;;2.30;1.40;;;10.20;38.70;;;;;;5088063;28;20464;-78
2022/02/10 03:16:26;;;;;;;2.10;1.27;;;10.20;39.00;;;;;;5086974;28;20589;-78
2022/02/10 03:18:59;;;;;;;2.00;1.10;;;10.20;37.90;;;;;;5090618;28;20478;-78
2022/02/10 03:21:46;;;;;;;3.37;1.30;;;10.30;39.50;;;;;;5084693;28;20892;-78
2022/02/10 04:00:50;;;;;;;3.60;1.70;;;10.10;38.10;;;;;;5088564;28;20474;-78
2022/02/10 04:06:27;;;;;;;1.57;1.20;;;10.00;37.10;;;;;;5086047;27;20548;-79
2022/02/10 04:09:21;;;;;;;1.43;1.10;;;10.00;39.00;;;;;;5055607;28;20479;-79
2022/02/10 04:12:08;;;;;;;2.80;1.37;;;10.00;38.30;;;;;;5051643;28;20803;-79
2022/02/10 04:14:44;;;;;;;2.00;1.27;;;9.90;39.00;;;;;;5056940;28;20529;-80
2022/02/10 04:17:33;;;;;;;2.40;1.50;;;9.90;38.70;;;;;;5049524;28;20470;-80
2022/02/10 04:22:58;;;;;;;1.63;1.13;;;9.80;38.40;;;;;;5053977;28;20958;-79
2022/02/10 04:25:43;;;;;;;3.07;1.23;;;9.70;38.60;;;;;;5051271;28;20464;-78
2022/02/10 04:28:24;;;;;;;4.10;1.37;;;9.70;37.60;;;;;;5057535;28;20465;-79
2022/02/10 04:45:37;;;;;;;2.93;1.17;;;9.60;37.20;;;;;;5055432;28;20493;-78
2022/02/10 04:56:20;;;;;;;1.60;1.30;;;9.70;37.50;;;;;;5053176;28;20456;-79
2022/02/10 04:59:00;;;;;;;2.60;1.37;;;9.60;35.40;;;;;;5049111;28;20541;-78
2022/02/10 05:01:43;;;;;;;1.53;1.43;;;9.50;35.00;;;;;;5045449;28;20457;-79
2022/02/10 05:07:32;;;;;;;1.60;1.30;;;9.30;32.70;;;;;;5047183;28;20474;-79
2022/02/10 05:21:21;;;;;;;3.17;1.40;;;8.70;29.30;;;;;;5082622;28;20451;-80
2022/02/10 05:32:31;;;;;;;3.83;1.60;;;9.20;37.90;;;;;;5057521;28;20461;-80
2022/02/10 05:35:14;;;;;;;1.70;1.43;;;9.30;38.10;;;;;;5089397;28;20857;-80
2022/02/10 05:37:47;;;;;;;4.53;1.50;;;9.40;39.30;;;;;;5054294;28;20529;-80
2022/02/10 05:40:25;;;;;;;1.73;1.27;;;9.40;40.70;;;;;;5058265;28;20476;-81
2022/02/10 05:43:21;;;;;;;4.90;1.60;;;9.50;40.60;;;;;;5058315;28;20863;-80
2022/02/10 05:46:02;;;;;;;1.27;1.17;;;9.60;40.90;;;;;;5056470;28;20468;-80
2022/02/10 05:48:47;;;;;;;1.27;1.17;;;9.50;39.80;;;;;;5058155;28;20542;-80
2022/02/10 05:54:26;;;;;;;1.57;1.47;;;9.30;36.80;;;;;;5033728;28;20465;-78
2022/02/10 05:57:08;;;;;;;3.37;1.30;;;9.20;36.30;;;;;;5055904;28;20486;-77
2022/02/10 06:02:47;;;;;;;3.57;1.23;;;9.20;37.40;;;;;;5050906;28;20469;-78
2022/02/10 06:52:59;;;;;;;2.57;1.47;;;9.20;43.20;;;;;;5039625;28;20472;-78
2022/02/10 06:56:02;;;;;;;2.60;1.30;;;9.20;42.90;;;;;;5040377;28;20742;-78
2022/02/10 07:04:21;;;;;;;3.80;1.67;;;9.20;42.70;;;;;;5042792;28;21182;-77
2022/02/10 07:07:10;;;;;;;3.37;1.80;;;9.20;42.80;;;;;;5034569;28;21783;-78
2022/02/10 07:10:00;;;;;;;2.07;1.63;;;9.20;43.10;;;;;;5042953;28;20481;-78
2022/02/10 07:15:39;;;;;;;2.00;1.37;;;9.20;43.40;;;;;;5042798;28;20461;-78
2022/02/10 07:54:34;;;;;;;2.30;1.50;;;9.30;46.80;;;;;;5039220;28;20458;-77
2022/02/10 07:57:12;;;;;;;2.73;1.63;;;9.30;45.90;;;;;;5045053;28;20498;-78
2022/02/10 08:50:12;;;;;;;3.10;1.57;;;11.60;73.00;;;;;;5038467;28;20479;-80
2022/02/10 08:55:47;;;;;;;1.80;1.33;;;11.70;73.40;;;;;;5038382;28;20537;-80
2022/02/10 09:03:55;;;;;;;3.30;1.30;;;12.20;80.30;;;;;;5042786;28;20462;-80
2022/02/10 09:06:37;;;;;;;3.40;1.60;;;12.40;81.60;;;;;;5036578;28;20936;-80
2022/02/10 09:20:40;;;;;;;2.70;1.20;;;12.60;84.70;;;;;;5034275;28;20907;-79
2022/02/10 09:59:57;;;;;;;4.47;2.07;;;15.10;98.90;;;;;;4972704;28;21026;-80
2022/02/10 10:02:32;;;;;;;2.43;1.77;;;15.60;99.10;;;;;;4975151;28;20462;-79
2022/02/10 10:05:08;;;;;;;2.47;1.93;;;15.90;99.80;;;;;;5030606;28;20459;-79
2022/02/10 10:07:53;;;;;;;2.67;1.50;;;15.80;99.50;;;;;;5059292;28;20466;-78
2022/02/10 10:10:45;;;;;;;3.33;1.73;;;15.60;99.30;;;;;;5041312;28;20965;-80
2022/02/10 10:13:32;;;;;;;2.37;1.30;;;15.70;99.20;;;;;;5043533;28;21007;-80
2022/02/10 10:16:19;;;;;;;2.40;1.47;;;15.90;99.90;;;;;;5039853;28;20442;-79
2022/02/10 10:19:04;;;;;;;4.70;1.90;;;16.10;99.90;;;;;;5042353;28;20490;-80
2022/02/10 10:21:43;;;;;;;2.07;1.80;;;16.40;99.90;;;;;;5043708;28;20456;-78
2022/02/10 10:24:28;;;;;;;1.87;1.70;;;16.70;99.90;;;;;;5036918;28;20810;-80
2022/02/10 10:27:25;;;;;;;4.30;1.60;;;16.90;99.90;;;;;;5045281;28;20456;-80
2022/02/10 10:44:47;;;;;;;5.73;2.13;;;18.00;99.90;;;;;;5040446;28;20724;-81
2022/02/10 10:50:24;;;;;;;3.60;1.97;;;18.20;99.90;;;;;;5037380;28;20490;-80
2022/02/10 10:53:12;;;;;;;3.03;1.93;;;18.10;99.90;;;;;;5045032;28;20499;-81
2022/02/10 10:55:49;;;;;;;3.83;2.33;;;18.30;99.90;;;;;;5044882;28;20457;-81
2022/02/10 10:58:32;;;;;;;2.87;1.83;;;18.30;99.90;;;;;;5039575;28;20479;-80
2022/02/10 11:38:15;;;;;;;3.87;2.20;;;20.00;99.90;;;;;;5044545;28;20817;-81
2022/02/10 11:41:37;;;;;;;2.10;1.83;;;19.90;99.90;;;;;;5042300;28;20563;-80
2022/02/10 11:44:37;;;;;;;3.33;1.97;;;19.70;99.90;;;;;;5043369;28;20978;-81
2022/02/10 12:36:47;;;;;;;3.43;2.10;;;16.20;95.40;;;;;;5040742;28;20945;-80
2022/02/10 13:48:55;;;;;;;4.37;3.00;;;14.60;92.70;;;;;;5041534;28;21337;-79
2022/02/10 14:13:49;;;;;;;3.80;2.80;;;14.00;91.00;;;;;;5041327;28;20203;-80
2022/02/10 14:19:12;;;;;;;5.73;2.40;;;14.10;92.30;;;;;;5039235;28;20484;-79
2022/02/10 14:21:48;;;;;;;3.90;2.70;;;14.10;91.70;;;;;;5035821;28;20848;-80
2022/02/10 14:27:02;;;;;;;3.67;2.30;;;14.00;91.00;;;;;;5042827;28;20465;-79
2022/02/10 14:29:31;;;;;;;4.67;2.60;;;13.90;89.60;;;;;;5046091;28;21007;-79
2022/02/10 14:32:01;;;;;;;3.03;2.40;;;13.80;90.10;;;;;;5041767;28;20445;-79
2022/02/10 14:34:29;;;;;;;3.07;2.20;;;13.70;89.80;;;;;;5049395;28;20920;-79
2022/02/10 14:37:16;;;;;;;3.80;2.20;;;13.70;90.00;;;;;;5054623;28;20465;-79
2022/02/10 14:40:01;;;;;;;3.73;2.23;;;13.60;89.60;;;;;;5056091;28;20478;-79
2022/02/10 15:21:44;;;;;;;3.10;1.63;;;13.10;77.50;;;;;;5014232;28;20843;-80
2022/02/10 15:36:11;;;;;;;2.10;1.90;;;12.70;72.20;;;;;;5043907;28;20494;-79
2022/02/10 15:50:12;;;;;;;1.50;1.40;;;12.40;69.70;;;;;;5031365;28;20559;-79
2022/02/10 15:53:05;;;;;;;2.83;1.60;;;12.40;69.70;;;;;;5043142;28;21090;-78
2022/02/10 16:18:29;;;;;;;2.53;1.47;;;12.70;71.10;;;;;;5066850;28;20546;-79
2022/02/10 16:21:00;;;;;;;1.97;1.30;;;12.70;69.90;;;;;;5037517;28;20492;-79
2022/02/10 16:23:31;;;;;;;3.70;2.50;;;12.60;67.10;;;;;;5046032;28;20547;-79
2022/02/10 16:26:10;;;;;;;2.40;1.90;;;12.60;68.20;;;;;;5044755;28;20506;-79
2022/02/10 16:28:44;;;;;;;3.10;1.77;;;12.60;68.10;;;;;;5039315;28;20456;-78
2022/02/10 16:31:13;;;;;;;1.43;1.20;;;12.60;64.90;;;;;;5041006;28;20477;-78
2022/02/10 16:33:43;;;;;;;1.73;1.30;;;12.50;64.20;;;;;;5038584;28;20554;-79
2022/02/10 16:36:16;;;;;;;2.10;1.20;;;12.50;63.00;;;;;;5041935;28;21065;-79
2022/02/10 16:38:50;;;;;;;1.83;1.50;;;12.40;63.60;;;;;;5041736;28;20484;-81
2022/02/10 16:41:18;;;;;;;3.43;1.37;;;12.40;63.30;;;;;;5040945;28;20480;-78
2022/02/10 16:43:53;;;;;;;1.47;1.37;;;12.40;65.10;;;;;;5040906;28;20535;-78
2022/02/10 16:46:23;;;;;;;1.43;1.33;;;12.50;65.60;;;;;;5039227;28;20448;-78
2022/02/10 16:48:56;;;;;;;3.70;1.33;;;12.60;62.50;;;;;;5040399;28;20456;-78
2022/02/10 16:51:25;;;;;;;2.20;1.40;;;12.50;63.90;;;;;;5041404;28;20862;-79
2022/02/10 16:54:02;;;;;;;1.80;1.37;;;12.50;64.60;;;;;;5044701;28;20443;-79
2022/02/10 16:56:37;;;;;;;2.73;1.50;;;12.60;67.10;;;;;;5039578;28;20558;-79
2022/02/10 16:59:24;;;;;;;1.50;1.40;;;12.60;65.50;;;;;;5038093;28;20520;-78
2022/02/10 17:02:18;;;;;;;3.93;1.83;;;12.60;82.30;;;;;;5036818;28;20483;-78
2022/02/10 17:05:19;;;;;;;2.60;1.50;;;12.60;64.70;;;;;;5035451;28;20474;-78
2022/02/10 17:27:25;;;;;;;2.33;1.40;;;12.70;65.20;;;;;;5040070;28;20463;-78
2022/02/10 17:30:54;;;;;;;2.97;2.23;;;12.70;65.20;;;;;;5035043;28;20479;-78
2022/02/10 17:33:29;;;;;;;1.60;1.50;;;12.70;67.30;;;;;;5044207;28;20549;-79
2022/02/10 17:36:12;;;;;;;2.67;1.30;;;12.70;66.80;;;;;;5052693;28;21264;-78
2022/02/10 17:52:35;;;;;;;2.00;1.33;;;12.10;60.30;;;;;;5038862;28;20848;-77
2022/02/10 17:55:05;;;;;;;1.73;1.30;;;11.90;59.90;;;;;;5071281;28;20459;-77
2022/02/10 17:57:34;;;;;;;1.50;1.40;;;11.80;60.20;;;;;;5041411;28;20951;-77
2022/02/10 18:00:03;;;;;;;1.93;1.73;;;11.70;61.80;;;;;;5037364;28;20895;-77
2022/02/10 18:02:31;;;;;;;1.47;1.37;;;11.70;60.90;;;;;;5033240;28;20516;-77
2022/02/10 18:05:02;;;;;;;2.57;1.20;;;11.60;62.30;;;;;;5036733;28;20853;-78
2022/02/10 18:07:31;;;;;;;1.20;1.10;;;11.50;60.20;;;;;;5036388;28;20829;-77
2022/02/10 18:10:19;;;;;;;1.43;1.30;;;11.60;62.20;;;;;;5040281;28;20508;-78
2022/02/10 18:15:38;;;;;;;4.30;1.87;;;11.80;66.00;;;;;;5036889;28;20563;-78
2022/02/10 18:18:16;;;;;;;3.90;1.57;;;11.90;67.50;;;;;;5043163;28;20471;-77
2022/02/10 18:20:52;;;;;;;3.33;1.27;;;11.90;67.40;;;;;;5038153;28;20533;-78
2022/02/10 18:23:27;;;;;;;1.83;1.57;;;12.00;68.00;;;;;;5040435;28;20531;-78
2022/02/10 18:26:05;;;;;;;2.23;1.50;;;12.00;68.10;;;;;;5057931;28;20486;-77
2022/02/10 19:08:05;;;;;;;1.47;1.30;;;12.00;70.60;;;;;;5039421;28;20459;-79
2022/02/10 19:10:38;;;;;;;1.77;1.50;;;12.00;72.10;;;;;;5038649;28;20846;-78
2022/02/10 19:13:09;;;;;;;2.67;1.53;;;12.00;71.60;;;;;;5036566;28;20455;-77
2022/02/10 19:15:38;;;;;;;6.27;1.77;;;12.00;72.50;;;;;;5039713;28;20503;-79
2022/02/10 19:18:08;;;;;;;1.50;1.40;;;12.00;71.70;;;;;;5044394;28;20542;-78
2022/02/10 19:20:38;;;;;;;2.53;2.00;;;12.00;73.50;;;;;;5041984;28;20572;-78
2022/02/10 19:23:07;;;;;;;1.53;1.40;;;12.00;73.80;;;;;;5044282;28;20478;-80
2022/02/10 19:25:39;;;;;;;1.73;1.63;;;12.10;73.90;;;;;;5042731;28;20455;-79
2022/02/10 19:28:09;;;;;;;1.60;1.50;;;12.10;74.90;;;;;;5043972;28;20520;-79
2022/02/10 19:30:39;;;;;;;3.10;1.60;;;12.00;72.30;;;;;;5048709;28;21325;-78
2022/02/10 19:33:12;;;;;;;1.70;1.40;;;12.00;73.00;;;;;;5043566;28;20443;-78
2022/02/10 19:35:44;;;;;;;2.70;1.87;;;12.00;73.40;;;;;;5038103;28;20463;-79
2022/02/10 19:38:17;;;;;;;3.20;1.50;;;12.00;73.40;;;;;;5040224;28;20977;-79
2022/02/10 19:40:51;;;;;;;3.90;2.30;;;12.00;71.40;;;;;;5039026;28;20718;-78
2022/02/10 19:43:21;;;;;;;2.70;2.50;;;12.00;73.00;;;;;;5042765;28;20484;-78
2022/02/10 19:45:50;;;;;;;2.70;1.80;;;12.00;73.10;;;;;;5044235;28;20472;-78
2022/02/10 19:48:19;;;;;;;4.53;2.70;;;11.90;73.40;;;;;;5042926;28;20576;-78
2022/02/10 19:50:47;;;;;;;2.97;2.57;;;11.90;73.70;;;;;;5043218;28;20570;-79
2022/02/10 19:53:18;;;;;;;1.60;1.50;;;11.90;75.60;;;;;;5043370;28;20458;-78
2022/02/10 19:55:50;;;;;;;3.97;1.60;;;11.90;72.70;;;;;;5045290;28;20451;-78
2022/02/10 19:58:22;;;;;;;2.73;1.80;;;11.80;74.20;;;;;;5038641;28;20475;-78
2022/02/10 20:00:55;;;;;;;2.30;1.40;;;11.80;72.70;;;;;;5041076;28;20468;-79
2022/02/10 20:03:25;;;;;;;2.90;1.80;;;11.80;73.40;;;;;;5035691;28;20492;-79
2022/02/10 20:05:55;;;;;;;1.83;1.40;;;11.80;72.90;;;;;;5040345;28;20541;-78
2022/02/10 20:08:26;;;;;;;2.27;1.70;;;11.80;73.60;;;;;;5042144;28;20467;-79
2022/02/10 20:10:56;;;;;;;1.57;1.43;;;11.80;73.00;;;;;;5040118;28;20483;-80
2022/02/10 20:13:26;;;;;;;1.97;1.63;;;11.80;76.10;;;;;;5038525;28;20818;-80
2022/02/10 20:15:55;;;;;;;2.60;1.70;;;11.90;76.40;;;;;;5037872;28;20463;-80
2022/02/10 20:18:23;;;;;;;1.50;1.30;;;11.90;75.50;;;;;;5042146;28;20455;-80
2022/02/10 20:20:54;;;;;;;1.73;1.60;;;11.90;76.20;;;;;;5043320;28;20934;-80
2022/02/10 20:23:24;;;;;;;7.20;1.87;;;11.80;73.60;;;;;;5041674;28;20491;-80
2022/02/10 20:26:10;;;;;;;3.10;2.27;;;11.80;73.60;;;;;;5043891;28;20460;-80
2022/02/10 20:28:39;;;;;;;3.33;1.50;;;11.80;74.60;;;;;;5037603;28;20898;-80
2022/02/10 20:31:09;;;;;;;2.90;2.00;;;11.80;74.20;;;;;;5038029;28;20491;-79
2022/02/10 20:33:37;;;;;;;2.27;2.07;;;11.70;72.20;;;;;;5043315;28;20458;-79
2022/02/10 20:36:07;;;;;;;1.60;1.40;;;11.60;71.50;;;;;;5073773;28;20548;-79
2022/02/10 20:38:39;;;;;;;2.53;2.33;;;11.60;73.90;;;;;;5040466;28;20558;-79
2022/02/10 20:41:13;;;;;;;1.73;1.60;;;11.60;75.00;;;;;;5040321;28;20450;-80
2022/02/10 20:43:42;;;;;;;1.50;1.40;;;11.70;75.00;;;;;;5040356;28;20838;-79
2022/02/10 20:46:14;;;;;;;2.37;2.10;;;11.70;75.00;;;;;;5037474;28;20501;-79
2022/02/10 20:48:43;;;;;;;1.80;1.70;;;11.70;78.10;;;;;;5044568;28;20915;-77
2022/02/10 20:51:13;;;;;;;2.27;1.93;;;11.70;76.90;;;;;;5044231;28;20966;-79
2022/02/10 20:53:44;;;;;;;2.00;1.67;;;11.80;76.80;;;;;;5040751;28;20461;-80
2022/02/10 20:56:15;;;;;;;2.03;1.70;;;11.70;76.00;;;;;;5037658;28;20547;-80
2022/02/10 20:58:43;;;;;;;1.97;1.87;;;11.80;75.30;;;;;;5035455;28;20457;-80
2022/02/10 21:01:14;;;;;;;1.93;1.40;;;11.80;77.00;;;;;;5068167;28;20990;-80
2022/02/10 21:03:44;;;;;;;2.60;2.03;;;11.70;77.40;;;;;;5035826;28;20496;-80
2022/02/10 21:06:23;;;;;;;4.87;1.67;;;11.80;77.50;;;;;;5041722;28;20863;-81
2022/02/10 21:08:56;;;;;;;2.10;1.47;;;11.80;77.50;;;;;;5054155;28;20960;-79
2022/02/10 21:11:28;;;;;;;2.27;1.80;;;11.70;77.90;;;;;;5040038;28;20536;-80
2022/02/10 21:14:02;;;;;;;2.07;1.50;;;11.70;78.10;;;;;;5040174;28;20811;-80
2022/02/10 21:16:30;;;;;;;1.60;1.50;;;11.80;77.10;;;;;;5038722;28;20479;-80
2022/02/10 21:18:59;;;;;;;1.90;1.80;;;11.80;78.70;;;;;;5041892;28;21015;-79
2022/02/10 21:21:28;;;;;;;2.60;2.40;;;11.80;78.30;;;;;;5038807;28;20457;-79
2022/02/10 21:24:02;;;;;;;2.30;1.97;;;11.80;78.10;;;;;;5041597;28;20482;-79
2022/02/10 21:26:37;;;;;;;3.40;1.80;;;11.80;77.40;;;;;;5036436;28;20463;-79
2022/02/10 21:29:07;;;;;;;2.20;2.00;;;11.80;79.60;;;;;;5040087;28;20487;-79
2022/02/10 21:31:42;;;;;;;2.53;2.33;;;11.80;77.60;;;;;;5039944;28;20448;-79
2022/02/10 21:34:15;;;;;;;4.03;2.77;;;11.70;75.60;;;;;;5042146;28;20459;-80
2022/02/10 21:36:59;;;;;;;3.80;2.47;;;11.70;75.60;;;;;;5052509;28;20471;-81
2022/02/10 21:39:43;;;;;;;3.77;1.97;;;11.80;76.70;;;;;;5035031;28;20851;-80
2022/02/10 21:48:10;;;;;;;5.83;2.53;;;11.70;78.60;;;;;;5038092;28;20460;-80
2022/02/10 22:11:11;;;;;;;5.60;3.30;;;11.60;78.50;;;;;;5043624;28;20291;-79
2022/02/10 22:16:47;;;;;;;3.67;2.33;;;11.50;79.80;;;;;;5042753;28;20554;-78
2022/02/10 22:19:18;;;;;;;4.50;3.30;;;11.50;78.50;;;;;;5045292;28;20833;-80
2022/02/10 22:21:50;;;;;;;7.55;3.60;;;11.50;80.00;;;;;;5040210;28;20450;-79
2022/02/10 22:24:19;;;;;;;3.95;2.58;;;11.50;81.70;;;;;;5075627;28;20447;-79
2022/02/10 22:26:50;;;;;;;3.40;2.23;;;11.50;82.00;;;;;;5036850;28;20289;-79
2022/02/10 22:29:24;;;;;;;4.10;2.80;;;11.50;83.60;;;;;;5043764;28;20993;-79
2022/02/10 22:32:05;;;;;;;4.37;2.33;;;11.60;84.50;;;;;;5045376;28;20611;-80
2022/02/10 22:34:41;;;;;;;3.00;1.80;;;11.50;83.40;;;;;;5045188;28;20458;-80
2022/02/10 22:37:12;;;;;;;2.30;2.03;;;11.50;85.70;;;;;;5046004;28;20486;-79
2022/02/10 22:39:44;;;;;;;4.53;2.03;;;11.50;83.60;;;;;;5042300;28;20487;-79
2022/02/10 22:42:13;;;;;;;3.30;2.00;;;11.60;84.50;;;;;;5046233;28;20547;-80
2022/02/10 22:44:42;;;;;;;4.70;2.10;;;11.50;82.30;;;;;;5075635;28;20471;-79
2022/02/10 22:47:12;;;;;;;5.00;2.50;;;11.40;83.20;;;;;;5042327;28;20460;-80
2022/02/10 22:49:40;;;;;;;2.40;1.53;;;11.40;86.90;;;;;;5045437;28;20467;-79
2022/02/10 22:52:13;;;;;;;2.30;2.00;;;11.50;86.00;;;;;;5043881;28;20571;-79
2022/02/10 22:54:41;;;;;;;2.07;1.90;;;11.40;86.60;;;;;;5047041;28;20443;-79
2022/02/10 22:57:10;;;;;;;3.57;2.13;;;11.50;86.50;;;;;;5044863;28;20452;-80
2022/02/10 22:59:38;;;;;;;2.93;2.50;;;11.50;87.90;;;;;;5044737;28;20872;-79
2022/02/10 23:02:06;;;;;;;2.83;2.13;;;11.50;88.60;;;;;;5041350;28;20474;-80
2022/02/10 23:04:36;;;;;;;3.63;2.30;;;11.50;89.80;;;;;;5043242;28;20819;-79
2022/02/10 23:07:08;;;;;;;2.53;1.70;;;11.40;89.30;;;;;;5043289;28;20526;-79
2022/02/10 23:09:41;;;;;;;2.70;1.60;;;11.40;90.10;;;;;;5043116;28;21081;-80
2022/02/10 23:12:11;;;;;;;2.40;1.47;;;11.40;90.10;;;;;;5042169;28;20460;-80
2022/02/10 23:14:39;;;;;;;3.80;2.20;;;11.40;88.40;;;;;;5058407;28;20674;-80
2022/02/10 23:17:07;;;;;;;2.77;1.80;;;11.50;89.50;;;;;;5040709;28;20474;-80
2022/02/10 23:19:39;;;;;;;6.30;2.30;;;11.50;91.70;;;;;;5041843;28;20479;-80
2022/02/10 23:22:08;;;;;;;3.77;1.80;;;11.50;91.30;;;;;;5043379;28;20748;-80
2022/02/10 23:24:36;;;;;;;2.87;2.47;;;11.50;91.40;;;;;;5041442;28;20500;-80
2022/02/10 23:27:05;;;;;;;2.80;1.90;;;11.60;91.30;;;;;;5038271;28;20472;-80
2022/02/10 23:29:33;;;;;;;3.10;2.17;;;11.60;91.20;;;;;;5044468;28;20497;-80
2022/02/10 23:32:03;;;;;;;2.70;1.80;;;11.60;92.00;;;;;;5042548;28;20470;-79
2022/02/10 23:34:32;;;;;;;6.00;2.93;;;11.60;91.60;;;;;;5044488;28;20459;-79
2022/02/10 23:37:01;;;;;;;2.10;1.90;;;11.60;91.70;;;;;;5041266;28;20461;-79
2022/02/10 23:39:34;;;;;;;4.40;1.93;;;11.70;91.50;;;;;;5043040;28;20475;-80
2022/02/10 23:42:10;;;;;;;3.17;2.27;;;11.70;92.10;;;;;;5057193;28;21004;-80
2022/02/10 23:44:42;;;;;;;2.17;2.03;;;11.70;91.70;;;;;;5042152;28;20919;-80
2022/02/10 23:47:16;;;;;;;3.23;2.43;;;11.70;91.90;;;;;;5041039;28;20471;-81
2022/02/10 23:49:45;;;;;;;2.70;2.13;;;11.70;91.90;;;;;;5041263;28;20566;-81
2022/02/10 23:52:16;;;;;;;5.83;2.53;;;11.70;92.40;;;;;;5038177;28;20570;-80
2022/02/10 23:54:47;;;;;;;3.60;2.00;;;11.70;92.30;;;;;;5043708;28;20452;-80
2022/02/10 23:57:23;;;;;;;2.30;2.07;;;11.70;92.30;;;;;;5037578;28;20456;-80
